METAR AND TAF INFORMATION
METAR FOR KDFW
KDFW 230353Z 21004KT 10SM FEW016 SCT021 BKN160 OVC250 24/22 A3000 RMK AO2 SLP150 T02390217
KDFW 230253Z 21004KT 10SM FEW025 SCT045 BKN130 OVC250 24/22 A2999 RMK AO2 SLP146 T02390217 53013
KDFW 230153Z 21009KT 10SM FEW045 SCT060 BKN150 OVC250 25/21 A2997 RMK AO2 SLP139 T02500211
KDFW 230250Z 2303/2406 17005KT P6SM BKN250
FM231800 03003KT P6SM SCT040 BKN250
FM240100 17003KT P6SM SCT060 BKN250

 AIRPORT MAP

 RUNWAY INFORMATION
Runway 13L Runway length 9000 ft Runway width 200 ft
Runway elevation 550 ft Runway displaced threshold 625 ft Runway heading 135
Runway 31R Runway length 9000 ft Runway width 200 ft
Runway elevation 508 ft Runway displaced threshold 0 ft Runway heading 315
Runway 13R Runway length 9301 ft Runway width 150 ft
Runway elevation 591 ft Runway displaced threshold 0 ft Runway heading 139
Runway 31L Runway length 9301 ft Runway width 150 ft
Runway elevation 577 ft Runway displaced threshold 0 ft Runway heading 319
Runway 17C Runway length 13401 ft Runway width 150 ft
Runway elevation 562 ft Runway displaced threshold 0 ft Runway heading 180
Runway 35C Runway length 13401 ft Runway width 150 ft
Runway elevation 562 ft Runway displaced threshold 0 ft Runway heading 0
Runway 17L Runway length 8500 ft Runway width 150 ft
Runway elevation 524 ft Runway displaced threshold 0 ft Runway heading 180
Runway 35R Runway length 8500 ft Runway width 150 ft
Runway elevation 575 ft Runway displaced threshold 0 ft Runway heading 0
Runway 17R Runway length 13401 ft Runway width 200 ft
Runway elevation 567 ft Runway displaced threshold 0 ft Runway heading 180
Runway 35L Runway length 13401 ft Runway width 200 ft
Runway elevation 563 ft Runway displaced threshold 0 ft Runway heading 0
Runway 18L Runway length 13400 ft Runway width 200 ft
Runway elevation 602 ft Runway displaced threshold 0 ft Runway heading 180
Runway 36R Runway length 13400 ft Runway width 200 ft
Runway elevation 575 ft Runway displaced threshold 0 ft Runway heading 0
Runway 18R Runway length 13400 ft Runway width 150 ft
Runway elevation 607 ft Runway displaced threshold 0 ft Runway heading 180
Runway 36L Runway length 13400 ft Runway width 150 ft
Runway elevation 582 ft Runway displaced threshold 0 ft Runway heading 0

 AIRPORT FREQUENCIES
Type APP Name RGNL APP Frequency 119.875 MHZ
Type APP Name RGNL APP Frequency 28.465 MHZ
Type ATIS Name ATIS Frequency 123.775 MHZ
Type CLD Name CLNC DEL Frequency 128.25 MHZ
Type DEP Name RGNL DEP Frequency 118.55 MHZ
Type DEP Name RGNL DEP Frequency 31.985 MHZ
Type GND Name RGNL GND Frequency 121.65 MHZ
Type TWR Name RGNL TWR Frequency 124.15 MHZ
Type UNIC Name UNICOM Frequency 122.95 MHZ

 AIRPORT NEAR NAVIGATION AIDS
Type NDB Name Jiffy Frequency 219 KHZ

-